KBNL

Barnwell Regional Airport

Barnwell, South Carolina, USA
METAR KBNL 280055Z AUTO 10005KT 10SM -DZ BKN007 OVC012 23/22 A2993 RMK AO2
Observed Flight Rules
May-28 @ 00:55 UTC (23 minutes ago) Instrument Flight Rules
Wind Visibility Clouds Conditions
100° at 5 knots 10 miles
  • Broken at 700' AGL
  • Overcast at 1,200' AGL
  • Light Drizzle
Temperatures Readings
Current 23°C / 73°F
Dewpoint 22°C / 72°F
Humidity 94%
Altimeter 29.93" Hg
Pressure 1014 hPa
Elevation 75
METAR KBNL 280055Z AUTO 10005KT 10SM -DZ BKN007 OVC012 23/22 A2993 RMK AO2
Observed Flight Rules
May-28 @ 00:55 UTC
(23 minutes ago)
IFR
Wind Visibility
100° at 5 knots 10 miles
Clouds
  • Broken at 700' AGL
  • Overcast at 1,200' AGL
Conditions
  • Light Drizzle
Temperature Dewpoint
23°C / 73°F 22°C / 72°F
Humidity Altimeter Pressure
94% 29.93" Hg 1014 hPa